sensor_id;sensor_type;location;lat;lon;timestamp;P1;durP1;ratioP1;P2;durP2;ratioP2
74849;SDS011;63397;47.480;19.238;2023-05-10T00:02:21;5.50;;;1.77;;
74849;SDS011;63397;47.480;19.238;2023-05-10T00:05:24;4.93;;;2.00;;
74849;SDS011;63397;47.480;19.238;2023-05-10T00:08:26;5.05;;;2.25;;
74849;SDS011;63397;47.480;19.238;2023-05-10T00:11:28;6.05;;;2.42;;
74849;SDS011;63397;47.480;19.238;2023-05-10T00:14:31;5.60;;;2.20;;
74849;SDS011;63397;47.480;19.238;2023-05-10T00:17:33;7.15;;;2.40;;
74849;SDS011;63397;47.480;19.238;2023-05-10T00:20:35;5.93;;;2.25;;
74849;SDS011;63397;47.480;19.238;2023-05-10T00:23:37;5.50;;;2.20;;
74849;SDS011;63397;47.480;19.238;2023-05-10T00:26:40;5.40;;;2.10;;
74849;SDS011;63397;47.480;19.238;2023-05-10T00:29:44;6.57;;;2.33;;
74849;SDS011;63397;47.480;19.238;2023-05-10T00:32:46;5.68;;;2.45;;
74849;SDS011;63397;47.480;19.238;2023-05-10T00:35:50;5.03;;;2.30;;
74849;SDS011;63397;47.480;19.238;2023-05-10T00:38:52;6.13;;;2.00;;
74849;SDS011;63397;47.480;19.238;2023-05-10T00:41:54;5.65;;;2.15;;
74849;SDS011;63397;47.480;19.238;2023-05-10T00:44:57;5.83;;;2.40;;
74849;SDS011;63397;47.480;19.238;2023-05-10T00:48:01;5.20;;;2.28;;
74849;SDS011;63397;47.480;19.238;2023-05-10T00:51:04;5.75;;;2.50;;
74849;SDS011;63397;47.480;19.238;2023-05-10T00:54:06;5.60;;;2.78;;
74849;SDS011;63397;47.480;19.238;2023-05-10T00:57:09;6.30;;;2.65;;
74849;SDS011;63397;47.480;19.238;2023-05-10T01:00:12;6.53;;;3.00;;
74849;SDS011;63397;47.480;19.238;2023-05-10T01:03:14;5.32;;;2.58;;
74849;SDS011;63397;47.480;19.238;2023-05-10T01:06:17;5.90;;;2.60;;
74849;SDS011;63397;47.480;19.238;2023-05-10T01:09:22;5.43;;;2.17;;
74849;SDS011;63397;47.480;19.238;2023-05-10T01:12:25;6.15;;;2.53;;
74849;SDS011;63397;47.480;19.238;2023-05-10T01:15:28;4.83;;;2.17;;
74849;SDS011;63397;47.480;19.238;2023-05-10T01:18:33;5.68;;;2.25;;
74849;SDS011;63397;47.480;19.238;2023-05-10T01:22:25;8.30;;;2.35;;
74849;SDS011;63397;47.480;19.238;2023-05-10T01:31:22;5.70;;;2.60;;
74849;SDS011;63397;47.480;19.238;2023-05-10T01:34:25;5.68;;;2.25;;
74849;SDS011;63397;47.480;19.238;2023-05-10T01:37:40;4.80;;;2.33;;
74849;SDS011;63397;47.480;19.238;2023-05-10T01:43:57;6.93;;;2.70;;
74849;SDS011;63397;47.480;19.238;2023-05-10T01:47:07;5.17;;;2.23;;
74849;SDS011;63397;47.480;19.238;2023-05-10T01:50:22;4.82;;;2.10;;
74849;SDS011;63397;47.480;19.238;2023-05-10T01:53:26;6.97;;;2.38;;
74849;SDS011;63397;47.480;19.238;2023-05-10T01:56:29;6.28;;;2.75;;
74849;SDS011;63397;47.480;19.238;2023-05-10T01:59:34;5.50;;;2.33;;
74849;SDS011;63397;47.480;19.238;2023-05-10T02:02:44;5.20;;;2.43;;
74849;SDS011;63397;47.480;19.238;2023-05-10T02:05:48;6.25;;;2.55;;
74849;SDS011;63397;47.480;19.238;2023-05-10T02:08:50;5.10;;;2.33;;
74849;SDS011;63397;47.480;19.238;2023-05-10T02:11:54;5.22;;;2.50;;
74849;SDS011;63397;47.480;19.238;2023-05-10T02:14:57;7.35;;;2.47;;
74849;SDS011;63397;47.480;19.238;2023-05-10T02:18:01;5.87;;;2.60;;
74849;SDS011;63397;47.480;19.238;2023-05-10T02:21:04;5.03;;;2.42;;
74849;SDS011;63397;47.480;19.238;2023-05-10T02:24:07;6.35;;;2.50;;
74849;SDS011;63397;47.480;19.238;2023-05-10T02:27:10;4.75;;;2.20;;
74849;SDS011;63397;47.480;19.238;2023-05-10T02:30:13;5.55;;;2.25;;
74849;SDS011;63397;47.480;19.238;2023-05-10T02:33:16;5.37;;;2.40;;
74849;SDS011;63397;47.480;19.238;2023-05-10T02:36:20;5.07;;;2.45;;
74849;SDS011;63397;47.480;19.238;2023-05-10T02:39:23;5.55;;;2.58;;
74849;SDS011;63397;47.480;19.238;2023-05-10T02:42:27;5.63;;;2.63;;
74849;SDS011;63397;47.480;19.238;2023-05-10T02:45:30;6.85;;;3.00;;
74849;SDS011;63397;47.480;19.238;2023-05-10T02:48:33;6.27;;;2.60;;
74849;SDS011;63397;47.480;19.238;2023-05-10T02:51:35;5.78;;;2.50;;
74849;SDS011;63397;47.480;19.238;2023-05-10T02:54:45;4.95;;;2.53;;
74849;SDS011;63397;47.480;19.238;2023-05-10T02:57:54;5.45;;;2.53;;
74849;SDS011;63397;47.480;19.238;2023-05-10T03:00:59;8.52;;;3.17;;
74849;SDS011;63397;47.480;19.238;2023-05-10T03:04:01;7.97;;;2.53;;
74849;SDS011;63397;47.480;19.238;2023-05-10T03:07:04;6.80;;;2.67;;
74849;SDS011;63397;47.480;19.238;2023-05-10T03:10:06;5.97;;;3.17;;
74849;SDS011;63397;47.480;19.238;2023-05-10T03:13:56;5.90;;;2.90;;
74849;SDS011;63397;47.480;19.238;2023-05-10T03:16:47;6.95;;;3.17;;
74849;SDS011;63397;47.480;19.238;2023-05-10T03:20:15;6.57;;;3.23;;
74849;SDS011;63397;47.480;19.238;2023-05-10T03:26:26;6.15;;;2.92;;
74849;SDS011;63397;47.480;19.238;2023-05-10T03:29:36;7.38;;;2.83;;
74849;SDS011;63397;47.480;19.238;2023-05-10T03:32:39;7.43;;;2.88;;
74849;SDS011;63397;47.480;19.238;2023-05-10T03:35:42;6.43;;;2.90;;
74849;SDS011;63397;47.480;19.238;2023-05-10T03:38:46;5.80;;;2.75;;
74849;SDS011;63397;47.480;19.238;2023-05-10T03:41:48;6.80;;;3.20;;
74849;SDS011;63397;47.480;19.238;2023-05-10T03:44:51;8.55;;;3.30;;
74849;SDS011;63397;47.480;19.238;2023-05-10T03:47:53;6.20;;;3.10;;
74849;SDS011;63397;47.480;19.238;2023-05-10T03:50:56;6.57;;;3.00;;
74849;SDS011;63397;47.480;19.238;2023-05-10T03:53:59;6.63;;;2.90;;
74849;SDS011;63397;47.480;19.238;2023-05-10T03:57:01;6.65;;;3.30;;
74849;SDS011;63397;47.480;19.238;2023-05-10T04:00:05;7.47;;;3.10;;
74849;SDS011;63397;47.480;19.238;2023-05-10T04:03:15;8.63;;;3.88;;
74849;SDS011;63397;47.480;19.238;2023-05-10T04:06:17;6.87;;;3.47;;
74849;SDS011;63397;47.480;19.238;2023-05-10T04:09:20;8.30;;;3.80;;
74849;SDS011;63397;47.480;19.238;2023-05-10T04:12:22;9.73;;;3.88;;
74849;SDS011;63397;47.480;19.238;2023-05-10T04:15:24;8.43;;;3.55;;
74849;SDS011;63397;47.480;19.238;2023-05-10T04:18:26;8.38;;;3.47;;
74849;SDS011;63397;47.480;19.238;2023-05-10T04:21:29;6.30;;;3.23;;
74849;SDS011;63397;47.480;19.238;2023-05-10T04:24:32;6.78;;;3.65;;
74849;SDS011;63397;47.480;19.238;2023-05-10T04:27:34;6.38;;;3.35;;
74849;SDS011;63397;47.480;19.238;2023-05-10T04:30:36;6.85;;;3.25;;
74849;SDS011;63397;47.480;19.238;2023-05-10T04:33:39;7.28;;;3.50;;
74849;SDS011;63397;47.480;19.238;2023-05-10T04:36:41;10.37;;;4.37;;
74849;SDS011;63397;47.480;19.238;2023-05-10T04:39:43;8.07;;;4.22;;
74849;SDS011;63397;47.480;19.238;2023-05-10T04:42:45;8.25;;;4.28;;
74849;SDS011;63397;47.480;19.238;2023-05-10T04:45:48;12.18;;;4.25;;
74849;SDS011;63397;47.480;19.238;2023-05-10T04:48:50;8.90;;;4.72;;
74849;SDS011;63397;47.480;19.238;2023-05-10T04:51:52;8.77;;;4.23;;
74849;SDS011;63397;47.480;19.238;2023-05-10T04:54:55;10.65;;;4.43;;
74849;SDS011;63397;47.480;19.238;2023-05-10T04:57:57;11.18;;;4.93;;
74849;SDS011;63397;47.480;19.238;2023-05-10T05:01:07;10.00;;;4.43;;
74849;SDS011;63397;47.480;19.238;2023-05-10T05:04:12;10.32;;;4.53;;
74849;SDS011;63397;47.480;19.238;2023-05-10T05:07:16;10.50;;;4.17;;
74849;SDS011;63397;47.480;19.238;2023-05-10T05:10:22;8.02;;;4.20;;
74849;SDS011;63397;47.480;19.238;2023-05-10T05:13:51;7.95;;;3.63;;
74849;SDS011;63397;47.480;19.238;2023-05-10T05:16:55;9.15;;;4.20;;
74849;SDS011;63397;47.480;19.238;2023-05-10T05:20:01;8.18;;;4.40;;
74849;SDS011;63397;47.480;19.238;2023-05-10T05:23:21;7.57;;;4.03;;
74849;SDS011;63397;47.480;19.238;2023-05-10T05:26:29;9.60;;;4.18;;
74849;SDS011;63397;47.480;19.238;2023-05-10T05:29:53;7.68;;;3.80;;
74849;SDS011;63397;47.480;19.238;2023-05-10T05:32:59;8.68;;;3.55;;
74849;SDS011;63397;47.480;19.238;2023-05-10T05:36:17;7.22;;;3.83;;
74849;SDS011;63397;47.480;19.238;2023-05-10T05:39:20;8.03;;;4.03;;
74849;SDS011;63397;47.480;19.238;2023-05-10T05:42:23;8.93;;;4.00;;
74849;SDS011;63397;47.480;19.238;2023-05-10T05:45:25;7.72;;;3.83;;
74849;SDS011;63397;47.480;19.238;2023-05-10T05:48:29;10.98;;;3.75;;
74849;SDS011;63397;47.480;19.238;2023-05-10T05:51:31;7.25;;;3.70;;
74849;SDS011;63397;47.480;19.238;2023-05-10T05:54:34;7.77;;;4.03;;
74849;SDS011;63397;47.480;19.238;2023-05-10T05:57:40;6.45;;;3.35;;
74849;SDS011;63397;47.480;19.238;2023-05-10T06:00:43;6.07;;;3.60;;
74849;SDS011;63397;47.480;19.238;2023-05-10T06:03:50;7.10;;;3.63;;
74849;SDS011;63397;47.480;19.238;2023-05-10T06:06:54;7.65;;;4.00;;
74849;SDS011;63397;47.480;19.238;2023-05-10T06:09:57;6.70;;;3.67;;
74849;SDS011;63397;47.480;19.238;2023-05-10T06:13:01;6.60;;;3.47;;
74849;SDS011;63397;47.480;19.238;2023-05-10T06:16:04;6.93;;;3.75;;
74849;SDS011;63397;47.480;19.238;2023-05-10T06:19:07;7.15;;;3.70;;
74849;SDS011;63397;47.480;19.238;2023-05-10T06:22:10;7.57;;;4.15;;
74849;SDS011;63397;47.480;19.238;2023-05-10T06:25:12;6.83;;;3.60;;
74849;SDS011;63397;47.480;19.238;2023-05-10T06:28:17;7.40;;;4.30;;
74849;SDS011;63397;47.480;19.238;2023-05-10T06:31:20;5.72;;;3.65;;
74849;SDS011;63397;47.480;19.238;2023-05-10T06:34:23;7.70;;;3.83;;
74849;SDS011;63397;47.480;19.238;2023-05-10T06:37:26;6.18;;;3.72;;
74849;SDS011;63397;47.480;19.238;2023-05-10T06:40:29;7.10;;;4.10;;
74849;SDS011;63397;47.480;19.238;2023-05-10T06:43:31;7.20;;;4.10;;
74849;SDS011;63397;47.480;19.238;2023-05-10T06:46:34;7.15;;;3.60;;
74849;SDS011;63397;47.480;19.238;2023-05-10T06:49:37;7.53;;;4.10;;
74849;SDS011;63397;47.480;19.238;2023-05-10T06:52:39;6.93;;;4.00;;
74849;SDS011;63397;47.480;19.238;2023-05-10T06:55:41;6.77;;;4.03;;
74849;SDS011;63397;47.480;19.238;2023-05-10T06:58:44;7.50;;;3.55;;
74849;SDS011;63397;47.480;19.238;2023-05-10T07:01:46;6.63;;;3.70;;
74849;SDS011;63397;47.480;19.238;2023-05-10T07:04:48;6.45;;;3.83;;
74849;SDS011;63397;47.480;19.238;2023-05-10T07:07:51;6.88;;;4.15;;
74849;SDS011;63397;47.480;19.238;2023-05-10T07:10:59;7.20;;;4.20;;
74849;SDS011;63397;47.480;19.238;2023-05-10T07:14:02;7.82;;;4.25;;
74849;SDS011;63397;47.480;19.238;2023-05-10T07:17:04;5.47;;;3.03;;
74849;SDS011;63397;47.480;19.238;2023-05-10T07:20:07;7.13;;;4.57;;
74849;SDS011;63397;47.480;19.238;2023-05-10T07:23:10;7.18;;;4.05;;
74849;SDS011;63397;47.480;19.238;2023-05-10T07:26:12;6.37;;;3.53;;
74849;SDS011;63397;47.480;19.238;2023-05-10T07:29:14;7.45;;;3.97;;
74849;SDS011;63397;47.480;19.238;2023-05-10T07:32:16;6.75;;;3.70;;
74849;SDS011;63397;47.480;19.238;2023-05-10T07:35:21;8.20;;;3.50;;
74849;SDS011;63397;47.480;19.238;2023-05-10T07:38:23;7.13;;;3.70;;
74849;SDS011;63397;47.480;19.238;2023-05-10T07:41:25;6.63;;;3.23;;
74849;SDS011;63397;47.480;19.238;2023-05-10T07:44:28;6.68;;;3.28;;
74849;SDS011;63397;47.480;19.238;2023-05-10T07:47:30;5.85;;;3.00;;
74849;SDS011;63397;47.480;19.238;2023-05-10T07:50:32;7.93;;;3.38;;
74849;SDS011;63397;47.480;19.238;2023-05-10T07:53:35;9.25;;;3.53;;
74849;SDS011;63397;47.480;19.238;2023-05-10T07:56:37;9.70;;;4.40;;
74849;SDS011;63397;47.480;19.238;2023-05-10T07:59:40;11.65;;;4.72;;
74849;SDS011;63397;47.480;19.238;2023-05-10T08:02:44;6.28;;;3.20;;
74849;SDS011;63397;47.480;19.238;2023-05-10T08:05:47;6.90;;;3.80;;
74849;SDS011;63397;47.480;19.238;2023-05-10T08:08:49;5.85;;;3.50;;
74849;SDS011;63397;47.480;19.238;2023-05-10T08:11:52;8.07;;;4.40;;
74849;SDS011;63397;47.480;19.238;2023-05-10T08:14:55;5.93;;;3.45;;
74849;SDS011;63397;47.480;19.238;2023-05-10T08:17:57;8.05;;;4.00;;
74849;SDS011;63397;47.480;19.238;2023-05-10T08:21:00;5.90;;;3.60;;
74849;SDS011;63397;47.480;19.238;2023-05-10T08:24:02;8.65;;;3.50;;
74849;SDS011;63397;47.480;19.238;2023-05-10T08:27:05;6.30;;;3.50;;
74849;SDS011;63397;47.480;19.238;2023-05-10T08:30:07;6.95;;;3.42;;
74849;SDS011;63397;47.480;19.238;2023-05-10T08:33:10;6.38;;;3.05;;
74849;SDS011;63397;47.480;19.238;2023-05-10T08:36:12;6.80;;;3.42;;
74849;SDS011;63397;47.480;19.238;2023-05-10T08:39:16;5.80;;;3.42;;
74849;SDS011;63397;47.480;19.238;2023-05-10T08:42:31;5.33;;;3.07;;
74849;SDS011;63397;47.480;19.238;2023-05-10T08:45:37;6.30;;;3.28;;
74849;SDS011;63397;47.480;19.238;2023-05-10T08:48:39;5.43;;;2.70;;
74849;SDS011;63397;47.480;19.238;2023-05-10T08:51:43;8.65;;;3.00;;
74849;SDS011;63397;47.480;19.238;2023-05-10T08:54:47;4.68;;;2.35;;
74849;SDS011;63397;47.480;19.238;2023-05-10T08:57:50;12.80;;;3.37;;
74849;SDS011;63397;47.480;19.238;2023-05-10T09:00:52;6.22;;;3.00;;
74849;SDS011;63397;47.480;19.238;2023-05-10T09:03:55;6.72;;;3.53;;
74849;SDS011;63397;47.480;19.238;2023-05-10T09:06:58;7.90;;;3.97;;
74849;SDS011;63397;47.480;19.238;2023-05-10T09:10:00;5.85;;;3.45;;
74849;SDS011;63397;47.480;19.238;2023-05-10T09:13:02;6.17;;;3.37;;
74849;SDS011;63397;47.480;19.238;2023-05-10T09:16:05;5.55;;;3.10;;
74849;SDS011;63397;47.480;19.238;2023-05-10T09:19:21;5.43;;;3.28;;
74849;SDS011;63397;47.480;19.238;2023-05-10T09:22:24;5.88;;;3.40;;
74849;SDS011;63397;47.480;19.238;2023-05-10T09:25:27;7.13;;;3.50;;
74849;SDS011;63397;47.480;19.238;2023-05-10T09:28:33;5.70;;;3.30;;
74849;SDS011;63397;47.480;19.238;2023-05-10T09:31:49;5.30;;;3.25;;
74849;SDS011;63397;47.480;19.238;2023-05-10T09:34:53;7.20;;;3.15;;
74849;SDS011;63397;47.480;19.238;2023-05-10T09:37:57;8.85;;;3.80;;
74849;SDS011;63397;47.480;19.238;2023-05-10T09:41:00;5.15;;;2.90;;
74849;SDS011;63397;47.480;19.238;2023-05-10T09:44:04;4.80;;;2.87;;
74849;SDS011;63397;47.480;19.238;2023-05-10T09:47:07;5.05;;;3.00;;
74849;SDS011;63397;47.480;19.238;2023-05-10T09:50:10;5.00;;;2.88;;
74849;SDS011;63397;47.480;19.238;2023-05-10T09:53:14;5.50;;;3.38;;
74849;SDS011;63397;47.480;19.238;2023-05-10T09:56:32;4.50;;;2.17;;
74849;SDS011;63397;47.480;19.238;2023-05-10T09:59:35;7.23;;;2.10;;
74849;SDS011;63397;47.480;19.238;2023-05-10T10:02:38;5.00;;;3.00;;
74849;SDS011;63397;47.480;19.238;2023-05-10T10:05:41;5.53;;;2.83;;
74849;SDS011;63397;47.480;19.238;2023-05-10T10:08:47;5.82;;;2.85;;
74849;SDS011;63397;47.480;19.238;2023-05-10T10:11:49;5.43;;;2.50;;
74849;SDS011;63397;47.480;19.238;2023-05-10T10:14:52;8.90;;;2.90;;
74849;SDS011;63397;47.480;19.238;2023-05-10T10:17:55;5.63;;;2.50;;
74849;SDS011;63397;47.480;19.238;2023-05-10T10:20:58;4.53;;;2.65;;
74849;SDS011;63397;47.480;19.238;2023-05-10T10:24:01;4.82;;;2.55;;
74849;SDS011;63397;47.480;19.238;2023-05-10T10:27:07;5.00;;;2.22;;
74849;SDS011;63397;47.480;19.238;2023-05-10T10:37:05;4.38;;;2.35;;
74849;SDS011;63397;47.480;19.238;2023-05-10T10:40:41;4.28;;;2.33;;
74849;SDS011;63397;47.480;19.238;2023-05-10T10:43:36;4.63;;;2.30;;
74849;SDS011;63397;47.480;19.238;2023-05-10T10:50:14;4.05;;;1.98;;
74849;SDS011;63397;47.480;19.238;2023-05-10T10:53:18;4.78;;;1.90;;
74849;SDS011;63397;47.480;19.238;2023-05-10T10:56:21;6.43;;;2.25;;
74849;SDS011;63397;47.480;19.238;2023-05-10T10:59:28;5.10;;;1.98;;
74849;SDS011;63397;47.480;19.238;2023-05-10T11:02:37;6.40;;;2.27;;
74849;SDS011;63397;47.480;19.238;2023-05-10T11:05:46;4.15;;;2.00;;
74849;SDS011;63397;47.480;19.238;2023-05-10T11:08:48;6.03;;;2.08;;
74849;SDS011;63397;47.480;19.238;2023-05-10T11:11:52;4.93;;;1.80;;
74849;SDS011;63397;47.480;19.238;2023-05-10T11:14:57;6.35;;;1.90;;
74849;SDS011;63397;47.480;19.238;2023-05-10T11:18:00;4.87;;;1.97;;
74849;SDS011;63397;47.480;19.238;2023-05-10T11:21:17;3.83;;;2.10;;
74849;SDS011;63397;47.480;19.238;2023-05-10T11:24:22;3.80;;;1.90;;
74849;SDS011;63397;47.480;19.238;2023-05-10T11:27:24;3.78;;;1.77;;
74849;SDS011;63397;47.480;19.238;2023-05-10T11:30:27;4.78;;;2.25;;
74849;SDS011;63397;47.480;19.238;2023-05-10T11:33:29;4.13;;;1.87;;
74849;SDS011;63397;47.480;19.238;2023-05-10T11:36:35;8.07;;;1.95;;
74849;SDS011;63397;47.480;19.238;2023-05-10T11:39:38;4.35;;;1.90;;
74849;SDS011;63397;47.480;19.238;2023-05-10T11:42:40;6.40;;;2.00;;
74849;SDS011;63397;47.480;19.238;2023-05-10T11:45:42;4.68;;;2.20;;
74849;SDS011;63397;47.480;19.238;2023-05-10T11:48:45;5.83;;;1.73;;
74849;SDS011;63397;47.480;19.238;2023-05-10T11:51:47;3.35;;;1.70;;
74849;SDS011;63397;47.480;19.238;2023-05-10T11:54:50;5.03;;;1.80;;
74849;SDS011;63397;47.480;19.238;2023-05-10T11:57:53;3.25;;;1.60;;
74849;SDS011;63397;47.480;19.238;2023-05-10T12:00:56;5.38;;;1.90;;
74849;SDS011;63397;47.480;19.238;2023-05-10T12:03:59;5.03;;;1.80;;
74849;SDS011;63397;47.480;19.238;2023-05-10T12:07:02;6.47;;;1.77;;
74849;SDS011;63397;47.480;19.238;2023-05-10T12:10:09;3.63;;;1.70;;
74849;SDS011;63397;47.480;19.238;2023-05-10T12:13:12;6.40;;;1.63;;
74849;SDS011;63397;47.480;19.238;2023-05-10T12:16:23;5.05;;;2.15;;
74849;SDS011;63397;47.480;19.238;2023-05-10T12:19:25;3.53;;;1.60;;
74849;SDS011;63397;47.480;19.238;2023-05-10T12:22:27;5.88;;;1.90;;
74849;SDS011;63397;47.480;19.238;2023-05-10T12:25:30;4.43;;;1.95;;
74849;SDS011;63397;47.480;19.238;2023-05-10T12:28:33;3.22;;;2.00;;
74849;SDS011;63397;47.480;19.238;2023-05-10T12:31:48;6.10;;;1.95;;
74849;SDS011;63397;47.480;19.238;2023-05-10T12:34:51;3.70;;;2.00;;
74849;SDS011;63397;47.480;19.238;2023-05-10T12:37:55;4.72;;;2.20;;
74849;SDS011;63397;47.480;19.238;2023-05-10T12:40:58;5.63;;;1.95;;
74849;SDS011;63397;47.480;19.238;2023-05-10T12:44:01;5.55;;;2.28;;
74849;SDS011;63397;47.480;19.238;2023-05-10T12:47:03;5.10;;;1.92;;
74849;SDS011;63397;47.480;19.238;2023-05-10T12:50:06;4.57;;;1.70;;
74849;SDS011;63397;47.480;19.238;2023-05-10T12:53:08;4.15;;;1.67;;
74849;SDS011;63397;47.480;19.238;2023-05-10T12:56:11;3.70;;;1.60;;
74849;SDS011;63397;47.480;19.238;2023-05-10T12:59:13;3.63;;;1.52;;
74849;SDS011;63397;47.480;19.238;2023-05-10T13:02:15;3.53;;;1.50;;
74849;SDS011;63397;47.480;19.238;2023-05-10T13:05:20;3.80;;;1.27;;
74849;SDS011;63397;47.480;19.238;2023-05-10T13:08:22;5.85;;;2.10;;
74849;SDS011;63397;47.480;19.238;2023-05-10T13:11:24;2.92;;;1.65;;
74849;SDS011;63397;47.480;19.238;2023-05-10T13:14:27;4.55;;;1.90;;
74849;SDS011;63397;47.480;19.238;2023-05-10T13:17:29;3.55;;;1.83;;
74849;SDS011;63397;47.480;19.238;2023-05-10T13:20:34;2.83;;;1.30;;
74849;SDS011;63397;47.480;19.238;2023-05-10T13:23:36;3.47;;;1.70;;
74849;SDS011;63397;47.480;19.238;2023-05-10T13:26:42;4.30;;;1.75;;
74849;SDS011;63397;47.480;19.238;2023-05-10T13:29:44;2.70;;;1.48;;
74849;SDS011;63397;47.480;19.238;2023-05-10T13:32:49;3.05;;;1.50;;
74849;SDS011;63397;47.480;19.238;2023-05-10T13:35:52;2.43;;;1.50;;
74849;SDS011;63397;47.480;19.238;2023-05-10T13:38:56;5.10;;;1.50;;
74849;SDS011;63397;47.480;19.238;2023-05-10T13:41:58;6.32;;;1.50;;
74849;SDS011;63397;47.480;19.238;2023-05-10T13:45:01;3.00;;;1.48;;
74849;SDS011;63397;47.480;19.238;2023-05-10T13:48:07;2.60;;;1.55;;
74849;SDS011;63397;47.480;19.238;2023-05-10T13:51:09;1.90;;;1.00;;
74849;SDS011;63397;47.480;19.238;2023-05-10T13:54:11;6.15;;;1.58;;
74849;SDS011;63397;47.480;19.238;2023-05-10T13:57:14;2.88;;;1.20;;
74849;SDS011;63397;47.480;19.238;2023-05-10T14:00:18;2.90;;;1.30;;
74849;SDS011;63397;47.480;19.238;2023-05-10T14:03:21;5.13;;;1.40;;
74849;SDS011;63397;47.480;19.238;2023-05-10T14:06:23;3.30;;;1.37;;
74849;SDS011;63397;47.480;19.238;2023-05-10T14:09:25;3.92;;;1.38;;
74849;SDS011;63397;47.480;19.238;2023-05-10T14:12:28;2.65;;;1.10;;
74849;SDS011;63397;47.480;19.238;2023-05-10T14:15:30;2.97;;;1.20;;
74849;SDS011;63397;47.480;19.238;2023-05-10T14:18:32;6.18;;;1.38;;
74849;SDS011;63397;47.480;19.238;2023-05-10T14:21:34;3.80;;;1.10;;
74849;SDS011;63397;47.480;19.238;2023-05-10T14:24:37;2.50;;;1.38;;
74849;SDS011;63397;47.480;19.238;2023-05-10T14:27:40;3.90;;;1.38;;
74849;SDS011;63397;47.480;19.238;2023-05-10T14:30:42;3.85;;;1.60;;
74849;SDS011;63397;47.480;19.238;2023-05-10T14:33:44;4.53;;;1.42;;
74849;SDS011;63397;47.480;19.238;2023-05-10T14:36:46;3.53;;;1.20;;
74849;SDS011;63397;47.480;19.238;2023-05-10T14:39:49;2.75;;;1.20;;
74849;SDS011;63397;47.480;19.238;2023-05-10T14:42:51;3.55;;;1.30;;
74849;SDS011;63397;47.480;19.238;2023-05-10T14:45:54;2.40;;;1.00;;
74849;SDS011;63397;47.480;19.238;2023-05-10T14:48:57;2.75;;;1.17;;
74849;SDS011;63397;47.480;19.238;2023-05-10T14:51:59;2.60;;;1.13;;
74849;SDS011;63397;47.480;19.238;2023-05-10T14:55:01;1.98;;;0.98;;
74849;SDS011;63397;47.480;19.238;2023-05-10T14:58:04;2.10;;;1.23;;
74849;SDS011;63397;47.480;19.238;2023-05-10T15:01:06;2.47;;;1.30;;
74849;SDS011;63397;47.480;19.238;2023-05-10T15:04:09;6.30;;;1.23;;
74849;SDS011;63397;47.480;19.238;2023-05-10T15:07:12;2.50;;;1.00;;
74849;SDS011;63397;47.480;19.238;2023-05-10T15:10:17;2.08;;;1.10;;
74849;SDS011;63397;47.480;19.238;2023-05-10T15:13:19;3.05;;;1.30;;
74849;SDS011;63397;47.480;19.238;2023-05-10T15:16:21;2.42;;;1.40;;
74849;SDS011;63397;47.480;19.238;2023-05-10T15:19:23;4.55;;;1.38;;
74849;SDS011;63397;47.480;19.238;2023-05-10T15:22:26;2.73;;;1.20;;
74849;SDS011;63397;47.480;19.238;2023-05-10T15:25:30;3.58;;;1.48;;
74849;SDS011;63397;47.480;19.238;2023-05-10T15:28:32;2.83;;;1.52;;
74849;SDS011;63397;47.480;19.238;2023-05-10T15:31:35;4.25;;;1.13;;
74849;SDS011;63397;47.480;19.238;2023-05-10T15:34:38;3.28;;;1.60;;
74849;SDS011;63397;47.480;19.238;2023-05-10T15:37:40;2.40;;;1.23;;
74849;SDS011;63397;47.480;19.238;2023-05-10T15:40:42;2.72;;;1.30;;
74849;SDS011;63397;47.480;19.238;2023-05-10T15:43:44;2.90;;;1.60;;
74849;SDS011;63397;47.480;19.238;2023-05-10T15:46:46;2.63;;;1.20;;
74849;SDS011;63397;47.480;19.238;2023-05-10T15:49:49;2.90;;;1.25;;
74849;SDS011;63397;47.480;19.238;2023-05-10T15:52:51;3.73;;;1.20;;
74849;SDS011;63397;47.480;19.238;2023-05-10T15:55:54;2.72;;;1.45;;
74849;SDS011;63397;47.480;19.238;2023-05-10T15:58:57;2.58;;;1.10;;
74849;SDS011;63397;47.480;19.238;2023-05-10T16:01:59;2.60;;;1.38;;
74849;SDS011;63397;47.480;19.238;2023-05-10T16:05:02;7.05;;;2.13;;
74849;SDS011;63397;47.480;19.238;2023-05-10T16:08:04;3.27;;;1.40;;
74849;SDS011;63397;47.480;19.238;2023-05-10T16:11:06;2.92;;;1.55;;
74849;SDS011;63397;47.480;19.238;2023-05-10T16:14:09;3.92;;;1.38;;
74849;SDS011;63397;47.480;19.238;2023-05-10T16:17:11;2.90;;;1.70;;
74849;SDS011;63397;47.480;19.238;2023-05-10T16:20:14;4.10;;;1.63;;
74849;SDS011;63397;47.480;19.238;2023-05-10T16:23:16;6.10;;;1.70;;
74849;SDS011;63397;47.480;19.238;2023-05-10T16:26:18;3.92;;;1.55;;
74849;SDS011;63397;47.480;19.238;2023-05-10T16:29:21;3.33;;;1.65;;
74849;SDS011;63397;47.480;19.238;2023-05-10T16:32:23;6.78;;;1.90;;
74849;SDS011;63397;47.480;19.238;2023-05-10T16:35:25;4.28;;;1.60;;
74849;SDS011;63397;47.480;19.238;2023-05-10T16:38:28;4.27;;;2.07;;
74849;SDS011;63397;47.480;19.238;2023-05-10T16:41:33;4.13;;;1.70;;
74849;SDS011;63397;47.480;19.238;2023-05-10T16:44:35;3.60;;;1.70;;
74849;SDS011;63397;47.480;19.238;2023-05-10T16:47:38;3.95;;;1.90;;
74849;SDS011;63397;47.480;19.238;2023-05-10T16:50:44;3.55;;;1.80;;
74849;SDS011;63397;47.480;19.238;2023-05-10T16:53:46;5.10;;;2.00;;
74849;SDS011;63397;47.480;19.238;2023-05-10T16:56:48;3.78;;;1.77;;
74849;SDS011;63397;47.480;19.238;2023-05-10T16:59:51;5.07;;;1.90;;
74849;SDS011;63397;47.480;19.238;2023-05-10T17:02:57;6.15;;;1.90;;
74849;SDS011;63397;47.480;19.238;2023-05-10T17:05:59;3.65;;;1.60;;
74849;SDS011;63397;47.480;19.238;2023-05-10T17:09:02;4.60;;;1.80;;
74849;SDS011;63397;47.480;19.238;2023-05-10T17:12:05;5.70;;;2.30;;
74849;SDS011;63397;47.480;19.238;2023-05-10T17:15:07;4.97;;;2.28;;
74849;SDS011;63397;47.480;19.238;2023-05-10T17:18:10;3.53;;;1.73;;
74849;SDS011;63397;47.480;19.238;2023-05-10T17:21:12;4.20;;;2.00;;
74849;SDS011;63397;47.480;19.238;2023-05-10T17:24:14;3.90;;;1.80;;
74849;SDS011;63397;47.480;19.238;2023-05-10T17:27:16;4.82;;;2.10;;
74849;SDS011;63397;47.480;19.238;2023-05-10T17:30:19;6.32;;;1.73;;
74849;SDS011;63397;47.480;19.238;2023-05-10T17:33:27;5.95;;;1.63;;
74849;SDS011;63397;47.480;19.238;2023-05-10T17:36:29;3.85;;;1.77;;
74849;SDS011;63397;47.480;19.238;2023-05-10T17:39:31;4.00;;;1.87;;
74849;SDS011;63397;47.480;19.238;2023-05-10T17:42:35;4.82;;;1.60;;
74849;SDS011;63397;47.480;19.238;2023-05-10T17:45:37;3.13;;;1.52;;
74849;SDS011;63397;47.480;19.238;2023-05-10T17:48:39;4.88;;;1.60;;
74849;SDS011;63397;47.480;19.238;2023-05-10T17:51:42;3.60;;;1.80;;
74849;SDS011;63397;47.480;19.238;2023-05-10T17:54:45;3.97;;;1.70;;
74849;SDS011;63397;47.480;19.238;2023-05-10T17:57:48;4.28;;;1.60;;
74849;SDS011;63397;47.480;19.238;2023-05-10T18:00:53;3.88;;;1.77;;
74849;SDS011;63397;47.480;19.238;2023-05-10T18:03:55;6.30;;;2.00;;
74849;SDS011;63397;47.480;19.238;2023-05-10T18:06:58;3.33;;;1.40;;
74849;SDS011;63397;47.480;19.238;2023-05-10T18:10:02;5.03;;;1.70;;
74849;SDS011;63397;47.480;19.238;2023-05-10T18:13:05;4.07;;;1.67;;
74849;SDS011;63397;47.480;19.238;2023-05-10T18:16:09;4.70;;;1.70;;
74849;SDS011;63397;47.480;19.238;2023-05-10T18:19:14;6.78;;;1.70;;
74849;SDS011;63397;47.480;19.238;2023-05-10T18:22:16;5.10;;;1.50;;
74849;SDS011;63397;47.480;19.238;2023-05-10T18:25:18;3.80;;;1.67;;
74849;SDS011;63397;47.480;19.238;2023-05-10T18:28:21;3.72;;;1.73;;
74849;SDS011;63397;47.480;19.238;2023-05-10T18:31:25;4.13;;;1.95;;
74849;SDS011;63397;47.480;19.238;2023-05-10T18:34:27;4.03;;;1.67;;